Time;durP1;ratioP1;P1;durP2;ratioP2;P2;SDS_P1;SDS_P2;PMS_P1;PMS_P2;Temp;Humidity;BMP_temperature;BMP_pressure;BME280_temperature;BME280_humidity;BME280_pressure;Samples;Min_cycle;Max_cycle;Signal;HPM_P1;HPM_P2
2022/12/19 05:01:09;;;;;;;1999.90;999.90;;;-0.60;99.90;;;;;;5686463;22;20483;-82
2022/12/19 05:03:35;;;;;;;1999.90;999.90;;;-0.50;99.90;;;;;;5010664;28;20046;-82
2022/12/19 05:06:12;;;;;;;1999.90;999.90;;;-0.50;99.90;;;;;;5008409;28;20023;-82
2022/12/19 05:08:40;;;;;;;1999.90;999.90;;;-0.50;99.90;;;;;;5007625;28;20113;-83
2022/12/19 05:11:07;;;;;;;1999.90;999.90;;;-0.50;99.90;;;;;;5006951;28;20049;-82
2022/12/19 05:13:32;;;;;;;1999.90;999.90;;;-0.50;99.90;;;;;;5008984;28;20034;-83
2022/12/19 05:16:00;;;;;;;1999.90;999.90;;;-0.50;99.90;;;;;;5010868;28;20038;-83
2022/12/19 05:18:26;;;;;;;1999.90;999.90;;;-0.50;99.90;;;;;;5011147;28;20030;-82
2022/12/19 05:20:54;;;;;;;1999.90;999.90;;;-0.40;99.90;;;;;;5010436;28;20041;-82
2022/12/19 05:23:20;;;;;;;1999.90;999.90;;;-0.50;99.90;;;;;;5012537;28;20035;-84
2022/12/19 05:25:46;;;;;;;1999.90;999.90;;;-0.40;99.90;;;;;;5010661;28;20031;-83
2022/12/19 05:28:12;;;;;;;1999.90;999.90;;;-0.40;99.90;;;;;;5010903;28;20065;-83
2022/12/19 05:30:37;;;;;;;1999.90;999.90;;;-0.40;99.90;;;;;;5013271;28;20039;-82
2022/12/19 05:33:03;;;;;;;1999.90;999.90;;;-0.40;99.90;;;;;;5018575;28;20035;-81
2022/12/19 05:35:29;;;;;;;1999.90;999.90;;;-0.50;99.90;;;;;;5017090;28;20099;-82
2022/12/19 05:37:54;;;;;;;1999.90;999.90;;;-0.50;99.90;;;;;;5005992;28;20374;-82
2022/12/19 05:40:20;;;;;;;1999.90;999.90;;;-0.50;99.90;;;;;;5008797;28;20045;-82
2022/12/19 05:42:45;;;;;;;1999.90;999.90;;;-0.50;99.90;;;;;;5009262;28;20094;-83
2022/12/19 05:45:11;;;;;;;1999.90;999.90;;;-0.40;99.90;;;;;;5011893;28;20043;-83
2022/12/19 05:47:36;;;;;;;1999.90;999.90;;;-0.50;99.90;;;;;;5008819;28;20058;-83
2022/12/19 05:50:03;;;;;;;1999.90;999.90;;;-0.40;99.90;;;;;;5011216;28;20039;-83
2022/12/19 05:52:28;;;;;;;1999.90;999.90;;;-0.40;99.90;;;;;;5009875;28;20071;-84
2022/12/19 05:54:54;;;;;;;1999.90;999.90;;;-0.40;99.90;;;;;;5010198;28;20031;-83
2022/12/19 05:57:19;;;;;;;1999.90;999.90;;;-0.40;99.90;;;;;;5009345;28;20130;-84
2022/12/19 05:59:45;;;;;;;1999.90;999.90;;;-0.40;99.90;;;;;;5009624;28;20038;-83
2022/12/19 06:02:10;;;;;;;1999.90;999.90;;;-0.30;99.90;;;;;;5008675;28;20039;-84
2022/12/19 06:04:36;;;;;;;1999.90;999.90;;;-0.30;99.90;;;;;;5007851;28;20039;-84
2022/12/19 06:07:02;;;;;;;1999.90;999.90;;;-0.30;99.90;;;;;;5007774;28;20041;-83
2022/12/19 06:09:28;;;;;;;1999.90;999.90;;;-0.30;99.90;;;;;;5008968;28;20038;-84
2022/12/19 06:11:53;;;;;;;1999.90;999.90;;;-0.20;99.90;;;;;;5008821;28;20039;-83
2022/12/19 06:14:19;;;;;;;1999.90;999.90;;;-0.20;99.90;;;;;;5008948;28;20508;-84
2022/12/19 06:16:45;;;;;;;1999.90;999.90;;;-0.20;99.90;;;;;;5011326;28;20035;-83
2022/12/19 06:19:10;;;;;;;1999.90;999.90;;;-0.10;99.90;;;;;;5012321;28;20030;-83
2022/12/19 06:21:36;;;;;;;1999.90;999.90;;;-0.10;99.90;;;;;;5012014;28;20019;-84
2022/12/19 06:24:02;;;;;;;1999.90;999.90;;;-0.10;99.90;;;;;;5008688;28;20121;-83
2022/12/19 06:26:28;;;;;;;1999.90;999.90;;;-0.10;99.90;;;;;;5000872;28;20551;-83
2022/12/19 06:28:54;;;;;;;1999.90;999.90;;;-0.10;99.90;;;;;;5013021;28;20026;-82
2022/12/19 06:31:23;;;;;;;1999.90;999.90;;;-0.10;99.90;;;;;;5018371;28;20031;-82
2022/12/19 06:33:49;;;;;;;1999.90;999.90;;;0.00;99.90;;;;;;5018390;28;20023;-82
2022/12/19 06:36:21;;;;;;;1999.90;999.90;;;0.00;99.90;;;;;;5018627;28;20073;-82
2022/12/19 06:38:47;;;;;;;1999.90;999.90;;;0.10;99.90;;;;;;5018315;28;20107;-81
2022/12/19 06:44:03;;;;;;;1999.90;999.90;;;0.10;99.90;;;;;;5018096;28;20082;-83
2022/12/19 06:46:29;;;;;;;1999.90;999.90;;;0.10;99.90;;;;;;5006795;28;20039;-84
2022/12/19 06:48:55;;;;;;;1999.90;999.90;;;0.10;99.90;;;;;;5000994;28;20038;-83
2022/12/19 06:51:21;;;;;;;1999.90;999.90;;;0.10;99.90;;;;;;4999853;28;20039;-84
2022/12/19 06:53:47;;;;;;;1999.90;999.90;;;0.20;99.90;;;;;;4998727;28;20455;-84
2022/12/19 06:56:14;;;;;;;1999.90;999.90;;;0.20;99.90;;;;;;4997783;28;20031;-83
2022/12/19 06:58:40;;;;;;;1999.90;999.90;;;0.20;99.90;;;;;;4996000;28;20081;-83
2022/12/19 07:01:06;;;;;;;1999.90;999.90;;;0.30;99.90;;;;;;4996431;28;20496;-84
2022/12/19 07:03:36;;;;;;;1999.90;999.90;;;0.30;99.90;;;;;;4996661;28;20030;-84
2022/12/19 07:06:03;;;;;;;1999.90;999.90;;;0.30;99.90;;;;;;4998287;28;20038;-83
2022/12/19 07:08:29;;;;;;;1999.90;999.90;;;0.30;99.90;;;;;;5002847;28;20037;-83
2022/12/19 07:10:55;;;;;;;1999.90;999.90;;;0.30;99.90;;;;;;5002258;28;20463;-82
2022/12/19 07:13:20;;;;;;;1999.90;999.90;;;0.30;99.90;;;;;;5003657;28;20046;-82
2022/12/19 07:15:47;;;;;;;1999.90;999.90;;;0.40;99.90;;;;;;5003721;28;20523;-83
2022/12/19 07:18:13;;;;;;;1999.90;999.90;;;0.40;99.90;;;;;;5003143;28;20045;-82
2022/12/19 07:20:41;;;;;;;1999.90;999.90;;;0.40;99.90;;;;;;5005762;28;20110;-82
2022/12/19 07:23:08;;;;;;;1999.90;999.90;;;0.40;99.90;;;;;;5005025;28;20022;-83
2022/12/19 07:25:35;;;;;;;1999.90;999.90;;;0.40;99.90;;;;;;5007272;28;20121;-82
2022/12/19 07:28:01;;;;;;;1999.90;999.90;;;0.40;99.90;;;;;;4997660;28;20037;-82
2022/12/19 07:30:27;;;;;;;1999.90;999.90;;;0.40;99.90;;;;;;4993081;28;20086;-82
2022/12/19 07:32:52;;;;;;;1999.90;999.90;;;0.40;99.90;;;;;;4995607;28;20074;-82
2022/12/19 07:35:18;;;;;;;1999.90;999.90;;;0.40;99.90;;;;;;4999365;28;20031;-83
2022/12/19 07:37:43;;;;;;;1999.90;999.90;;;0.40;99.90;;;;;;5006669;28;20043;-83
2022/12/19 07:40:10;;;;;;;1999.90;999.90;;;0.50;99.90;;;;;;5000826;28;20035;-83
2022/12/19 07:42:35;;;;;;;1999.90;999.90;;;0.50;99.90;;;;;;5000211;28;20096;-82
2022/12/19 07:45:01;;;;;;;1999.90;999.90;;;0.60;99.90;;;;;;5002805;28;20034;-82
2022/12/19 07:47:26;;;;;;;1999.90;999.90;;;0.50;99.90;;;;;;4999917;28;20477;-81
2022/12/19 07:49:52;;;;;;;1999.90;999.90;;;0.60;99.90;;;;;;4997834;28;20077;-83
2022/12/19 07:52:18;;;;;;;1999.90;999.90;;;0.70;99.90;;;;;;5012111;28;20043;-83
2022/12/19 07:54:44;;;;;;;1999.90;999.90;;;0.70;99.90;;;;;;5016772;28;20488;-82
2022/12/19 07:57:09;;;;;;;1999.90;999.90;;;0.70;99.90;;;;;;5018793;28;20088;-81
2022/12/19 07:59:35;;;;;;;1999.90;999.90;;;0.80;99.90;;;;;;5019170;28;20065;-81
2022/12/19 08:02:01;;;;;;;1999.90;999.90;;;0.80;99.90;;;;;;5023708;28;20408;-82
2022/12/19 08:04:26;;;;;;;1999.90;999.90;;;0.90;99.90;;;;;;5021964;28;20404;-81
2022/12/19 08:06:52;;;;;;;1999.90;999.90;;;0.90;99.90;;;;;;5022688;28;20049;-82
2022/12/19 08:09:17;;;;;;;1999.90;999.90;;;0.90;99.90;;;;;;5023765;28;20031;-81
2022/12/19 08:11:43;;;;;;;1999.90;999.90;;;0.90;99.90;;;;;;5024294;28;20066;-82
2022/12/19 08:14:08;;;;;;;1999.90;999.90;;;0.90;99.90;;;;;;5025352;28;20030;-81
2022/12/19 08:16:35;;;;;;;1999.90;999.90;;;0.90;99.90;;;;;;5025093;28;20058;-81
2022/12/19 08:19:01;;;;;;;1999.90;999.90;;;0.80;99.90;;;;;;5025464;28;20034;-82
2022/12/19 08:21:27;;;;;;;1999.90;999.90;;;0.90;99.90;;;;;;5020849;28;20084;-84
2022/12/19 08:23:52;;;;;;;1999.90;999.90;;;0.80;99.90;;;;;;5019274;28;20431;-83
2022/12/19 08:26:26;;;;;;;1999.90;999.90;;;0.80;99.90;;;;;;5019354;28;20030;-83
2022/12/19 08:28:53;;;;;;;1999.90;999.90;;;0.80;99.90;;;;;;5020596;28;20533;-83
2022/12/19 08:31:20;;;;;;;1999.90;999.90;;;0.80;99.90;;;;;;5020625;28;20046;-85
2022/12/19 08:33:46;;;;;;;1999.90;999.90;;;0.80;99.90;;;;;;5018642;28;20034;-84
2022/12/19 08:36:13;;;;;;;1999.90;999.90;;;0.80;99.90;;;;;;5020693;28;20034;-84
2022/12/19 08:38:40;;;;;;;1999.90;999.90;;;0.80;99.90;;;;;;5019464;28;20798;-85
2022/12/19 08:41:06;;;;;;;1999.90;999.90;;;0.80;99.90;;;;;;5016357;28;20038;-84
2022/12/19 08:43:33;;;;;;;1999.90;999.90;;;0.90;99.90;;;;;;5015832;28;20031;-85
2022/12/19 08:45:58;;;;;;;1999.90;999.90;;;0.80;99.90;;;;;;5017069;28;20131;-85
2022/12/19 08:48:25;;;;;;;1999.90;999.90;;;0.90;99.90;;;;;;5018760;28;20034;-81
2022/12/19 08:50:52;;;;;;;1999.90;999.90;;;0.80;99.90;;;;;;5017007;28;20062;-83
2022/12/19 08:53:18;;;;;;;1999.90;999.90;;;0.90;99.90;;;;;;5020434;28;20037;-84
2022/12/19 08:55:44;;;;;;;1999.90;999.90;;;1.00;99.90;;;;;;5019137;28;20039;-83
2022/12/19 08:58:10;;;;;;;1999.90;999.90;;;1.00;99.90;;;;;;5021445;28;20038;-84
2022/12/19 09:00:35;;;;;;;1999.90;999.90;;;1.00;99.90;;;;;;5032495;28;20037;-82
2022/12/19 09:03:01;;;;;;;1999.90;999.90;;;1.00;99.90;;;;;;5039129;28;20034;-83
2022/12/19 09:05:26;;;;;;;1999.90;999.90;;;1.10;99.90;;;;;;5026957;28;20039;-81
2022/12/19 09:07:52;;;;;;;1999.90;999.90;;;1.20;99.90;;;;;;5021023;28;20030;-79
2022/12/19 09:10:19;;;;;;;1999.90;999.90;;;1.20;99.90;;;;;;5019348;28;20034;-80
2022/12/19 09:12:44;;;;;;;1999.90;999.90;;;1.20;99.90;;;;;;5016864;28;20069;-79
2022/12/19 09:15:10;;;;;;;1999.90;999.90;;;1.30;99.90;;;;;;5021028;28;20062;-79
2022/12/19 09:17:35;;;;;;;1999.90;999.90;;;1.30;99.90;;;;;;5019889;28;20042;-79
2022/12/19 09:20:01;;;;;;;1999.90;999.90;;;1.30;99.90;;;;;;5019751;28;20118;-81
2022/12/19 09:22:26;;;;;;;1999.90;999.90;;;1.40;99.90;;;;;;5017956;28;20039;-79
2022/12/19 09:24:52;;;;;;;1999.90;999.90;;;1.40;99.90;;;;;;5020392;28;20126;-80
2022/12/19 09:27:17;;;;;;;1999.90;999.90;;;1.40;99.90;;;;;;5018199;28;20045;-80
2022/12/19 09:29:43;;;;;;;1999.90;999.90;;;1.40;99.90;;;;;;5017905;28;20036;-81
2022/12/19 09:32:08;;;;;;;1999.90;999.90;;;1.40;99.90;;;;;;5018645;28;20038;-80
2022/12/19 09:34:35;;;;;;;1999.90;999.90;;;1.50;99.90;;;;;;5019895;28;20026;-80
2022/12/19 09:37:01;;;;;;;1999.90;999.90;;;1.50;99.90;;;;;;5017570;28;20416;-79
2022/12/19 09:39:26;;;;;;;1999.90;999.90;;;1.60;99.90;;;;;;5019844;28;20030;-81
2022/12/19 09:42:39;;;;;;;1999.90;999.90;;;1.70;99.90;;;;;;5022515;28;20507;-82
2022/12/19 09:45:10;;;;;;;1999.90;999.90;;;1.80;99.90;;;;;;5002901;28;20596;-82
2022/12/19 09:47:41;;;;;;;1999.90;999.90;;;1.80;99.90;;;;;;5024960;28;20077;-83
2022/12/19 09:50:38;;;;;;;1999.90;999.90;;;1.90;99.90;;;;;;5024844;28;20498;-83
2022/12/19 09:53:14;;;;;;;1999.90;999.90;;;2.00;99.90;;;;;;5027816;28;20053;-82
2022/12/19 09:55:41;;;;;;;1999.90;999.90;;;2.00;99.90;;;;;;5022338;28;20035;-82
2022/12/19 09:58:09;;;;;;;1999.90;999.90;;;2.10;99.90;;;;;;5025437;28;20034;-82
2022/12/19 10:00:41;;;;;;;1999.90;999.90;;;2.10;99.90;;;;;;5020969;28;20027;-82
2022/12/19 10:03:28;;;;;;;1999.90;999.90;;;2.20;99.90;;;;;;5020235;28;20057;-80
2022/12/19 10:05:59;;;;;;;1999.90;999.90;;;2.20;99.90;;;;;;5018026;28;20031;-83
2022/12/19 10:08:30;;;;;;;1999.90;999.90;;;2.30;99.90;;;;;;5019929;28;20037;-80
2022/12/19 10:10:56;;;;;;;1999.90;999.90;;;2.50;99.90;;;;;;5016818;28;20046;-82
2022/12/19 10:13:57;;;;;;;1999.90;999.90;;;2.50;99.90;;;;;;5017502;28;20030;-83
2022/12/19 10:16:44;;;;;;;1999.90;999.90;;;2.50;99.90;;;;;;5018317;28;20070;-79
2022/12/19 10:19:22;;;;;;;1999.90;999.90;;;2.50;99.90;;;;;;5017622;28;20030;-78
2022/12/19 10:22:18;;;;;;;1999.90;999.90;;;2.60;99.90;;;;;;5018817;28;20045;-80
2022/12/19 10:25:02;;;;;;;1999.90;999.90;;;2.80;99.90;;;;;;5015638;28;20077;-78
2022/12/19 10:28:11;;;;;;;1999.90;999.90;;;2.90;99.90;;;;;;5018972;28;20038;-77
2022/12/19 10:30:49;;;;;;;1999.90;999.90;;;3.00;99.90;;;;;;5015103;28;20444;-79
2022/12/19 10:33:32;;;;;;;1999.90;999.90;;;3.10;99.90;;;;;;5017507;28;20048;-79
2022/12/19 10:36:00;;;;;;;1999.90;999.90;;;3.10;99.90;;;;;;5017353;28;20042;-78
2022/12/19 10:38:37;;;;;;;1999.90;999.90;;;3.30;99.90;;;;;;5017388;28;20030;-78
2022/12/19 10:41:20;;;;;;;1999.90;999.90;;;3.30;99.90;;;;;;5014850;28;20026;-79
2022/12/19 10:44:01;;;;;;;1999.90;999.90;;;3.50;99.90;;;;;;5013647;28;20488;-78
2022/12/19 10:46:46;;;;;;;1999.90;999.90;;;3.60;99.90;;;;;;5013487;28;20089;-79
2022/12/19 10:49:13;;;;;;;1999.90;999.90;;;3.70;99.90;;;;;;5021577;28;20131;-78
2022/12/19 10:51:39;;;;;;;1999.90;999.90;;;3.70;99.90;;;;;;5039369;28;20058;-79
2022/12/19 10:54:05;;;;;;;1999.90;999.90;;;3.60;99.90;;;;;;5030935;28;20125;-77
2022/12/19 10:56:31;;;;;;;1999.90;999.90;;;3.60;99.90;;;;;;5013346;28;20097;-78
2022/12/19 10:58:57;;;;;;;1999.90;999.90;;;3.60;99.90;;;;;;5015315;28;20523;-77
2022/12/19 11:01:32;;;;;;;1999.90;999.90;;;3.60;99.90;;;;;;5012155;28;20038;-77
2022/12/19 11:04:30;;;;;;;1999.90;999.90;;;3.70;99.90;;;;;;5015014;28;20042;-76
2022/12/19 11:07:02;;;;;;;1999.90;999.90;;;3.90;99.90;;;;;;5013012;28;20041;-77
2022/12/19 11:09:37;;;;;;;1999.90;999.90;;;4.10;99.90;;;;;;5013255;28;20118;-77
2022/12/19 11:12:06;;;;;;;1999.90;999.90;;;4.30;99.90;;;;;;5012604;28;20043;-77
2022/12/19 11:14:33;;;;;;;1999.90;999.90;;;4.30;99.90;;;;;;5013966;28;20039;-77
2022/12/19 11:16:59;;;;;;;1999.90;999.90;;;4.40;99.90;;;;;;5015173;28;20041;-77
2022/12/19 11:19:34;;;;;;;1999.90;999.90;;;4.30;99.90;;;;;;5013300;28;20388;-77
2022/12/19 11:22:04;;;;;;;1999.90;999.90;;;4.30;99.90;;;;;;5014602;28;20049;-77
2022/12/19 11:24:45;;;;;;;1999.90;999.90;;;4.60;99.90;;;;;;5013639;28;20187;-77
2022/12/19 11:27:29;;;;;;;1999.90;999.90;;;4.60;99.90;;;;;;5015966;28;20117;-79
2022/12/19 11:29:56;;;;;;;1999.90;999.90;;;4.60;99.90;;;;;;5019859;28;20040;-78
2022/12/19 11:32:34;;;;;;;1999.90;999.90;;;4.40;99.90;;;;;;5029049;28;20046;-79
2022/12/19 11:35:05;;;;;;;1999.90;999.90;;;4.50;99.90;;;;;;5028539;28;20074;-79
2022/12/19 11:37:39;;;;;;;1999.90;999.90;;;4.50;99.90;;;;;;5029110;28;20035;-80
2022/12/19 11:40:12;;;;;;;1999.90;999.90;;;4.60;99.90;;;;;;5026709;28;20061;-79
2022/12/19 11:43:04;;;;;;;1999.90;999.90;;;4.70;99.90;;;;;;5022232;28;20058;-82
2022/12/19 11:46:10;;;;;;;1999.90;999.90;;;4.90;99.90;;;;;;5022211;28;20057;-83
2022/12/19 11:48:48;;;;;;;1999.90;999.90;;;4.90;99.90;;;;;;5026580;28;20077;-81
2022/12/19 11:51:20;;;;;;;1999.90;999.90;;;4.90;99.90;;;;;;5022280;28;20069;-82
2022/12/19 11:54:01;;;;;;;1999.90;999.90;;;4.70;99.90;;;;;;5029730;28;20030;-82
2022/12/19 11:56:28;;;;;;;1999.90;999.90;;;4.60;99.90;;;;;;5030842;28;20023;-82
2022/12/19 11:59:01;;;;;;;1999.90;999.90;;;4.80;99.90;;;;;;5030556;28;20081;-82
2022/12/19 12:01:42;;;;;;;1999.90;999.90;;;4.90;99.90;;;;;;5028444;28;20022;-83
2022/12/19 12:04:36;;;;;;;1999.90;999.90;;;4.80;99.90;;;;;;5033530;28;20563;-81
2022/12/19 12:07:03;;;;;;;1999.90;999.90;;;4.70;99.90;;;;;;5031549;28;20045;-81
2022/12/19 12:09:41;;;;;;;1999.90;999.90;;;5.00;99.90;;;;;;5030647;28;20101;-80
2022/12/19 12:12:28;;;;;;;1999.90;999.90;;;5.10;99.90;;;;;;5029534;28;20038;-83
2022/12/19 12:15:25;;;;;;;1999.90;999.90;;;5.20;99.90;;;;;;5032387;28;20034;-78
2022/12/19 12:18:04;;;;;;;1999.90;999.90;;;5.40;99.90;;;;;;5032813;28;20040;-82
2022/12/19 12:20:53;;;;;;;1999.90;999.90;;;5.30;99.90;;;;;;5030008;28;20038;-82
2022/12/19 12:23:47;;;;;;;1999.90;999.90;;;5.30;99.90;;;;;;5030800;28;20042;-81
2022/12/19 12:26:39;;;;;;;1999.90;999.90;;;5.30;99.90;;;;;;5034879;28;20035;-79
2022/12/19 12:29:35;;;;;;;1999.90;999.90;;;5.20;99.90;;;;;;5030605;28;20046;-80
2022/12/19 12:32:09;;;;;;;1999.90;999.90;;;5.30;99.90;;;;;;5031746;28;20046;-79
2022/12/19 12:34:49;;;;;;;1999.90;999.90;;;5.30;99.90;;;;;;5035799;28;20034;-80
2022/12/19 12:37:24;;;;;;;1999.90;999.90;;;5.20;99.90;;;;;;5031556;28;20031;-80
2022/12/19 12:40:08;;;;;;;1999.90;999.90;;;5.30;99.90;;;;;;5024099;28;20839;-80
2022/12/19 12:42:57;;;;;;;1999.90;999.90;;;5.20;99.90;;;;;;5022823;28;20166;-80
2022/12/19 12:45:29;;;;;;;1999.90;999.90;;;5.10;99.90;;;;;;5024239;28;20113;-78
2022/12/19 12:47:55;;;;;;;1999.90;999.90;;;5.10;99.90;;;;;;5024292;28;20034;-79
2022/12/19 12:50:23;;;;;;;1999.90;999.90;;;5.20;99.90;;;;;;5024238;28;20034;-79
2022/12/19 12:52:53;;;;;;;1999.90;999.90;;;5.30;99.90;;;;;;5022649;28;20042;-78
2022/12/19 12:55:27;;;;;;;1999.90;999.90;;;5.40;99.90;;;;;;5022169;28;20511;-79
2022/12/19 12:57:53;;;;;;;1999.90;999.90;;;5.40;99.90;;;;;;5022664;28;20034;-79
2022/12/19 13:00:26;;;;;;;1999.90;999.90;;;5.40;99.90;;;;;;5021981;28;20041;-81
2022/12/19 13:03:05;;;;;;;1999.90;999.90;;;5.40;99.90;;;;;;5022775;28;20408;-79
2022/12/19 13:05:45;;;;;;;1999.90;999.90;;;5.40;99.90;;;;;;5023409;28;20034;-80
2022/12/19 13:08:42;;;;;;;1999.90;999.90;;;5.40;99.90;;;;;;5028002;28;20038;-79
2022/12/19 13:14:02;;;;;;;1999.90;999.90;;;5.40;99.90;;;;;;4996421;28;20035;-79
2022/12/19 13:16:42;;;;;;;1999.90;999.90;;;5.60;99.90;;;;;;4998084;28;20035;-77
2022/12/19 13:19:24;;;;;;;1999.90;999.90;;;5.60;99.90;;;;;;4987801;28;20066;-77
2022/12/19 13:22:07;;;;;;;1999.90;999.90;;;5.50;99.90;;;;;;4976463;28;20051;-77
2022/12/19 13:24:51;;;;;;;1999.90;999.90;;;5.60;99.90;;;;;;4987389;28;20034;-82
2022/12/19 13:27:19;;;;;;;1999.90;999.90;;;5.60;99.90;;;;;;4995691;28;20039;-77
2022/12/19 13:30:06;;;;;;;1999.90;999.90;;;5.60;99.90;;;;;;4982575;28;20564;-77
2022/12/19 13:32:52;;;;;;;1999.90;999.90;;;5.70;99.90;;;;;;4980411;28;20545;-78
2022/12/19 13:35:17;;;;;;;1999.90;999.90;;;5.60;99.90;;;;;;4977229;28;20039;-77
2022/12/19 13:38:20;;;;;;;1999.90;999.90;;;5.60;99.90;;;;;;4977002;28;20046;-77
2022/12/19 13:41:00;;;;;;;1999.90;999.90;;;5.50;99.90;;;;;;4976317;28;20532;-77
2022/12/19 13:43:46;;;;;;;1999.90;999.90;;;5.50;99.90;;;;;;4977182;28;20031;-76
2022/12/19 13:46:27;;;;;;;1999.90;999.90;;;5.30;99.90;;;;;;4979650;28;20117;-77
2022/12/19 13:48:58;;;;;;;1999.90;999.90;;;5.30;99.90;;;;;;4986856;28;20031;-77
2022/12/19 13:51:24;;;;;;;1999.90;999.90;;;5.20;99.90;;;;;;4987209;28;20543;-77
2022/12/19 13:53:52;;;;;;;1999.90;999.90;;;5.10;99.90;;;;;;4996805;28;20086;-79
2022/12/19 13:56:19;;;;;;;1999.90;999.90;;;5.10;99.90;;;;;;4991031;28;20066;-77
2022/12/19 13:58:50;;;;;;;1999.90;999.90;;;5.00;99.90;;;;;;4995424;28;20045;-78
2022/12/19 14:01:24;;;;;;;1999.90;999.90;;;5.00;99.90;;;;;;5001069;28;20047;-79
2022/12/19 14:03:53;;;;;;;1999.90;999.90;;;4.90;99.90;;;;;;4992357;28;20198;-77
2022/12/19 14:06:27;;;;;;;1999.90;999.90;;;4.90;99.90;;;;;;4994544;28;20082;-78
2022/12/19 14:09:00;;;;;;;1999.90;999.90;;;4.90;99.90;;;;;;4997455;28;20037;-77
2022/12/19 14:11:27;;;;;;;1999.90;999.90;;;4.90;99.90;;;;;;5001891;28;20113;-77
2022/12/19 14:17:16;;;;;;;1999.90;999.90;;;4.90;99.90;;;;;;4940610;29;20096;-79
2022/12/19 14:19:46;;;;;;;1999.90;999.90;;;4.90;99.90;;;;;;4958302;28;20035;-78
2022/12/19 14:22:17;;;;;;;1999.90;999.90;;;4.90;99.90;;;;;;4972039;28;20544;-78
2022/12/19 14:25:03;;;;;;;1999.90;999.90;;;4.80;99.90;;;;;;4980657;28;20034;-78
2022/12/19 14:27:43;;;;;;;1999.90;999.90;;;4.70;99.90;;;;;;4989116;28;20065;-77
2022/12/19 14:30:21;;;;;;;1999.90;999.90;;;4.60;99.90;;;;;;4991779;28;20042;-77
2022/12/19 14:32:51;;;;;;;1999.90;999.90;;;4.50;99.90;;;;;;4985781;28;20043;-76
2022/12/19 14:35:20;;;;;;;1999.90;999.90;;;4.40;99.90;;;;;;4990881;28;20054;-77
2022/12/19 14:37:47;;;;;;;1999.90;999.90;;;4.40;99.90;;;;;;4998323;28;20043;-78
2022/12/19 14:40:24;;;;;;;1999.90;999.90;;;4.30;99.90;;;;;;4984457;28;20086;-77
2022/12/19 14:45:44;;;;;;;1999.90;999.90;;;4.10;99.90;;;;;;4977254;28;20813;-78
2022/12/19 14:48:32;;;;;;;1999.90;999.90;;;4.00;99.90;;;;;;4978303;28;20523;-79
2022/12/19 14:51:07;;;;;;;1999.90;999.90;;;3.80;99.90;;;;;;4978318;28;20048;-79
2022/12/19 14:53:32;;;;;;;1999.90;999.90;;;3.70;99.90;;;;;;4976408;28;20485;-79
2022/12/19 14:56:16;;;;;;;1999.90;999.90;;;3.50;99.90;;;;;;4976191;28;20092;-79
2022/12/19 14:58:53;;;;;;;1999.90;999.90;;;3.40;99.90;;;;;;4978169;28;20027;-79
2022/12/19 15:01:28;;;;;;;1999.90;999.90;;;3.30;99.90;;;;;;4982930;28;20126;-79
2022/12/19 15:04:04;;;;;;;1999.90;999.90;;;3.20;99.90;;;;;;4978041;28;20027;-79
2022/12/19 15:06:30;;;;;;;1999.90;999.90;;;3.20;99.90;;;;;;4979389;28;20091;-78
2022/12/19 15:09:06;;;;;;;1999.90;999.90;;;3.10;99.90;;;;;;4983067;28;20529;-78
2022/12/19 15:14:31;;;;;;;1999.90;999.90;;;2.90;99.90;;;;;;4983826;28;20070;-79
2022/12/19 15:17:16;;;;;;;1999.90;999.90;;;2.80;99.90;;;;;;4994779;28;20118;-78
2022/12/19 15:19:42;;;;;;;1999.90;999.90;;;2.80;99.90;;;;;;4995244;28;20034;-78
2022/12/19 15:22:07;;;;;;;1999.90;999.90;;;2.70;99.90;;;;;;4998053;28;20409;-78
2022/12/19 15:24:33;;;;;;;1999.90;999.90;;;2.60;99.90;;;;;;4997805;28;20552;-79
2022/12/19 15:27:00;;;;;;;1999.90;999.90;;;2.50;99.90;;;;;;4999230;28;20034;-80
2022/12/19 15:29:26;;;;;;;1999.90;999.90;;;2.40;99.90;;;;;;4988328;28;20118;-80
2022/12/19 15:31:52;;;;;;;1999.90;999.90;;;2.30;99.90;;;;;;4980307;28;20046;-77
2022/12/19 15:34:29;;;;;;;1999.90;999.90;;;2.30;99.90;;;;;;4979214;28;20110;-81
2022/12/19 15:36:56;;;;;;;1999.90;999.90;;;2.20;99.90;;;;;;4977759;28;20042;-78
2022/12/19 15:39:23;;;;;;;1999.90;999.90;;;2.10;99.90;;;;;;4981696;28;20031;-80
2022/12/19 15:41:51;;;;;;;1999.90;999.90;;;2.10;99.90;;;;;;4995424;28;20039;-78
2022/12/19 15:44:25;;;;;;;1999.90;999.90;;;2.00;99.90;;;;;;4996772;28;20035;-80
2022/12/19 15:46:51;;;;;;;1999.90;999.90;;;1.90;99.90;;;;;;4977131;28;20043;-77
2022/12/19 15:49:18;;;;;;;1999.90;999.90;;;1.90;99.90;;;;;;4976497;28;20027;-76
2022/12/19 15:51:44;;;;;;;1999.90;999.90;;;1.80;99.90;;;;;;4976115;28;20098;-77
2022/12/19 15:54:09;;;;;;;1999.90;999.90;;;1.70;99.90;;;;;;4974522;28;20038;-78
2022/12/19 15:56:45;;;;;;;1999.90;999.90;;;1.70;99.90;;;;;;4976539;28;20407;-78
2022/12/19 15:59:31;;;;;;;1999.90;999.90;;;1.70;99.90;;;;;;4976484;28;20592;-76
2022/12/19 16:01:57;;;;;;;1999.90;999.90;;;1.70;99.90;;;;;;4990531;28;20050;-81
2022/12/19 16:04:24;;;;;;;1999.90;999.90;;;1.60;99.90;;;;;;4999615;28;20058;-81
2022/12/19 16:06:50;;;;;;;1999.90;999.90;;;1.60;99.90;;;;;;4994709;28;20043;-76
2022/12/19 16:09:22;;;;;;;1999.90;999.90;;;1.50;99.90;;;;;;4994734;28;20035;-78
2022/12/19 16:11:52;;;;;;;1999.90;999.90;;;1.50;99.90;;;;;;4993983;28;20145;-77
2022/12/19 16:14:19;;;;;;;1999.90;999.90;;;1.50;99.90;;;;;;4994126;28;20054;-77
2022/12/19 16:16:51;;;;;;;1999.90;999.90;;;1.40;99.90;;;;;;4992835;28;20524;-77
2022/12/19 16:19:30;;;;;;;1999.90;999.90;;;1.50;99.90;;;;;;4994639;28;20031;-78
2022/12/19 16:21:56;;;;;;;1999.90;999.90;;;1.40;99.90;;;;;;4994206;28;20382;-77
2022/12/19 16:24:23;;;;;;;1999.90;999.90;;;1.30;99.90;;;;;;5000407;28;20042;-80
2022/12/19 16:26:53;;;;;;;1999.90;999.90;;;1.30;99.90;;;;;;4991468;28;20039;-80
2022/12/19 16:29:21;;;;;;;1999.90;999.90;;;1.30;99.90;;;;;;4999141;28;20027;-76
2022/12/19 16:31:47;;;;;;;1999.90;999.90;;;1.30;99.90;;;;;;4998024;28;20046;-77
2022/12/19 16:34:16;;;;;;;1999.90;999.90;;;1.20;99.90;;;;;;4997746;28;20396;-76
2022/12/19 16:36:42;;;;;;;1999.90;999.90;;;1.20;99.90;;;;;;4996546;28;20038;-76
2022/12/19 16:39:08;;;;;;;1999.90;999.90;;;1.20;99.90;;;;;;4982802;28;20037;-77
2022/12/19 16:41:34;;;;;;;1999.90;999.90;;;1.20;99.90;;;;;;4977512;28;20317;-77
2022/12/19 16:44:00;;;;;;;1999.90;999.90;;;1.20;99.90;;;;;;4977976;28;20062;-77
2022/12/19 16:46:32;;;;;;;1999.90;999.90;;;1.20;99.90;;;;;;4995650;28;20043;-80
2022/12/19 16:48:58;;;;;;;1999.90;999.90;;;1.20;99.90;;;;;;4997839;28;20049;-77
2022/12/19 16:51:26;;;;;;;1999.90;999.90;;;1.30;99.90;;;;;;4997849;28;20042;-79
2022/12/19 16:53:57;;;;;;;1999.90;999.90;;;1.30;99.90;;;;;;5015965;28;20042;-79
2022/12/19 16:56:40;;;;;;;1999.90;999.90;;;1.20;99.90;;;;;;5004103;28;20039;-77
2022/12/19 16:59:21;;;;;;;1999.90;999.90;;;1.20;99.90;;;;;;4995605;28;20054;-79
2022/12/19 17:01:46;;;;;;;1999.90;999.90;;;1.20;99.90;;;;;;4998122;28;20599;-78
2022/12/19 17:04:15;;;;;;;1999.90;999.90;;;1.20;99.90;;;;;;4999850;28;20086;-83
2022/12/19 17:06:41;;;;;;;1999.90;999.90;;;1.20;99.90;;;;;;4996432;28;20073;-81
2022/12/19 17:09:12;;;;;;;1999.90;999.90;;;1.10;99.90;;;;;;4995394;28;20062;-76
2022/12/19 17:11:38;;;;;;;1999.90;999.90;;;1.10;99.90;;;;;;4996358;28;20580;-77
2022/12/19 17:14:07;;;;;;;1999.90;999.90;;;1.00;99.90;;;;;;5012983;22;20497;-77
2022/12/19 17:16:33;;;;;;;1999.90;999.90;;;1.00;99.90;;;;;;4977048;28;20043;-76
2022/12/19 17:18:59;;;;;;;1999.90;999.90;;;1.00;99.90;;;;;;4977201;28;20114;-74
2022/12/19 17:21:25;;;;;;;1999.90;999.90;;;1.00;99.90;;;;;;4976659;28;20489;-73
2022/12/19 17:23:51;;;;;;;1999.90;999.90;;;1.00;99.90;;;;;;4975433;28;20122;-77
2022/12/19 17:26:17;;;;;;;1999.90;999.90;;;0.90;99.90;;;;;;4971367;28;20044;-76
2022/12/19 17:28:42;;;;;;;1999.90;999.90;;;0.90;99.90;;;;;;4955973;28;20032;-75
2022/12/19 17:31:26;;;;;;;1999.90;999.90;;;0.90;99.90;;;;;;4962315;28;20043;-76
2022/12/19 17:33:54;;;;;;;1999.90;999.90;;;0.80;99.90;;;;;;4971102;28;20031;-74
2022/12/19 17:36:22;;;;;;;1999.90;999.90;;;0.80;99.90;;;;;;4975643;28;20039;-73
2022/12/19 17:38:47;;;;;;;1999.90;999.90;;;0.70;99.90;;;;;;4970437;28;20745;-75
2022/12/19 17:41:15;;;;;;;1999.90;999.90;;;0.70;99.90;;;;;;4976302;28;20562;-75